Terminal Aerodrome Forecast
Issued by NWS

Home | Current Version | Previous Version | Text Only | Print | Product List | Glossary On
Versions: 1 2 3 4 5 6 7 8 9 10 11 12 13 14 15 16 17 18 19 20 21 22 23 24 25 26 27 28 29 30 31 32
000
FTUS43 KGRB 011700
TAFRHI
TAF
KRHI 011738Z 0118/0218 14010G17KT P6SM BKN015
     FM012000 14008KT P6SM BKN015 BKN080
     FM012200 15006KT 5SM BR SCT007 OVC015
      TEMPO 0122/0202 2SM -RA BR BKN007
     FM020200 13004KT 2SM -RA BR OVC005
     FM020600 14003KT 2SM -DZ BR OVC002
      TEMPO 0209/0213 1/2SM FG VV002
     FM021400 VRB02KT 5SM BR SCT002 BKN010 PROB30 0214/0218 3SM
      -TSRA BR BKN010CB OVC020=

USA.gov is the U.S. government's official web portal to all federal, state and local government web resources and services.